sensor_id;sensor_type;location;lat;lon;timestamp;pressure;altitude;pressure_sealevel;temperature
49557;BMP280;35462;45.048;7.666;2022-07-29T00:05:15;98877.16;;;27.28
49557;BMP280;35462;45.048;7.666;2022-07-29T00:20:31;98881.63;;;27.26
49557;BMP280;35462;45.048;7.666;2022-07-29T00:35:46;98873.41;;;27.13
49557;BMP280;35462;45.048;7.666;2022-07-29T00:51:05;98881.56;;;27.13
49557;BMP280;35462;45.048;7.666;2022-07-29T01:06:21;98874.47;;;26.91
49557;BMP280;35462;45.048;7.666;2022-07-29T01:37:17;98857.44;;;27.22
49557;BMP280;35462;45.048;7.666;2022-07-29T01:52:37;98852.91;;;27.43
49557;BMP280;35462;45.048;7.666;2022-07-29T02:07:55;98852.91;;;27.43
49557;BMP280;35462;45.048;7.666;2022-07-29T02:23:14;98838.34;;;27.09
49557;BMP280;35462;45.048;7.666;2022-07-29T02:38:35;98827.31;;;27.02
49557;BMP280;35462;45.048;7.666;2022-07-29T02:54:07;98852.16;;;26.93
49557;BMP280;35462;45.048;7.666;2022-07-29T03:09:25;98824.06;;;26.72
49557;BMP280;35462;45.048;7.666;2022-07-29T03:24:41;98826.75;;;26.72
49557;BMP280;35462;45.048;7.666;2022-07-29T03:40:07;98823.28;;;26.71
49557;BMP280;35462;45.048;7.666;2022-07-29T03:55:54;98822.25;;;26.80
49557;BMP280;35462;45.048;7.666;2022-07-29T04:11:14;98823.09;;;26.69
49557;BMP280;35462;45.048;7.666;2022-07-29T04:26:38;98826.56;;;26.70
49557;BMP280;35462;45.048;7.666;2022-07-29T04:41:56;98837.78;;;26.79
49557;BMP280;35462;45.048;7.666;2022-07-29T04:57:12;98859.38;;;26.90
49557;BMP280;35462;45.048;7.666;2022-07-29T05:12:28;98856.91;;;27.11
49557;BMP280;35462;45.048;7.666;2022-07-29T05:27:43;98861.59;;;26.92
49557;BMP280;35462;45.048;7.666;2022-07-29T05:43:00;98860.97;;;27.17
49557;BMP280;35462;45.048;7.666;2022-07-29T05:58:15;98884.66;;;28.23
49557;BMP280;35462;45.048;7.666;2022-07-29T06:13:31;98860.88;;;27.98
49557;BMP280;35462;45.048;7.666;2022-07-29T06:28:48;98862.31;;;28.84
49557;BMP280;35462;45.048;7.666;2022-07-29T06:44:04;98880.91;;;29.05
49557;BMP280;35462;45.048;7.666;2022-07-29T06:59:20;98878.31;;;30.59
49557;BMP280;35462;45.048;7.666;2022-07-29T07:15:11;98892.75;;;30.67
49557;BMP280;35462;45.048;7.666;2022-07-29T07:30:44;98901.84;;;34.90
49557;BMP280;35462;45.048;7.666;2022-07-29T07:46:00;98887.91;;;33.01
49557;BMP280;35462;45.048;7.666;2022-07-29T08:01:16;98881.44;;;32.82
49557;BMP280;35462;45.048;7.666;2022-07-29T08:16:34;98865.13;;;32.13
49557;BMP280;35462;45.048;7.666;2022-07-29T08:31:50;98869.50;;;31.10
49557;BMP280;35462;45.048;7.666;2022-07-29T08:47:06;98870.13;;;30.59
49557;BMP280;35462;45.048;7.666;2022-07-29T09:02:22;98862.38;;;30.28
49557;BMP280;35462;45.048;7.666;2022-07-29T09:17:43;98862.41;;;30.35
49557;BMP280;35462;45.048;7.666;2022-07-29T09:33:01;98858.50;;;30.81
49557;BMP280;35462;45.048;7.666;2022-07-29T09:48:21;98845.69;;;30.61
49557;BMP280;35462;45.048;7.666;2022-07-29T10:03:53;98841.34;;;30.73
49557;BMP280;35462;45.048;7.666;2022-07-29T10:19:09;98818.41;;;31.20
49557;BMP280;35462;45.048;7.666;2022-07-29T10:34:36;98813.09;;;31.07
49557;BMP280;35462;45.048;7.666;2022-07-29T10:50:04;98813.25;;;30.72
49557;BMP280;35462;45.048;7.666;2022-07-29T11:05:21;98796.84;;;30.65
49557;BMP280;35462;45.048;7.666;2022-07-29T11:20:41;98804.63;;;30.46
49557;BMP280;35462;45.048;7.666;2022-07-29T11:36:14;98812.09;;;30.46
49557;BMP280;35462;45.048;7.666;2022-07-29T11:51:30;98800.41;;;30.45
49557;BMP280;35462;45.048;7.666;2022-07-29T12:06:53;98762.50;;;30.42
49557;BMP280;35462;45.048;7.666;2022-07-29T12:22:10;98764.31;;;30.39
49557;BMP280;35462;45.048;7.666;2022-07-29T12:37:26;98752.28;;;30.49
49557;BMP280;35462;45.048;7.666;2022-07-29T12:52:43;98709.28;;;30.43
49557;BMP280;35462;45.048;7.666;2022-07-29T13:08:11;98683.94;;;30.64
49557;BMP280;35462;45.048;7.666;2022-07-29T13:23:28;98664.78;;;30.94
49557;BMP280;35462;45.048;7.666;2022-07-29T13:38:50;98698.00;;;30.83
49557;BMP280;35462;45.048;7.666;2022-07-29T13:54:08;98688.50;;;30.77
49557;BMP280;35462;45.048;7.666;2022-07-29T14:09:34;98684.66;;;30.80
49557;BMP280;35462;45.048;7.666;2022-07-29T14:24:53;98683.94;;;30.57
49557;BMP280;35462;45.048;7.666;2022-07-29T14:40:10;98695.00;;;30.14
49557;BMP280;35462;45.048;7.666;2022-07-29T14:55:26;98703.28;;;28.68
49557;BMP280;35462;45.048;7.666;2022-07-29T15:10:42;98705.38;;;28.42
49557;BMP280;35462;45.048;7.666;2022-07-29T15:25:58;98711.53;;;28.96
49557;BMP280;35462;45.048;7.666;2022-07-29T15:41:16;98728.28;;;28.26
49557;BMP280;35462;45.048;7.666;2022-07-29T15:56:32;98737.53;;;28.23
49557;BMP280;35462;45.048;7.666;2022-07-29T16:11:48;98723.56;;;27.68
49557;BMP280;35462;45.048;7.666;2022-07-29T16:27:05;98701.59;;;28.12
49557;BMP280;35462;45.048;7.666;2022-07-29T16:42:22;98693.16;;;27.12
49557;BMP280;35462;45.048;7.666;2022-07-29T16:57:37;98668.72;;;27.97
49557;BMP280;35462;45.048;7.666;2022-07-29T17:12:53;98677.88;;;28.20
49557;BMP280;35462;45.048;7.666;2022-07-29T17:28:09;98671.47;;;28.30
49557;BMP280;35462;45.048;7.666;2022-07-29T17:43:25;98673.81;;;28.13
49557;BMP280;35462;45.048;7.666;2022-07-29T17:58:41;98689.09;;;28.16
49557;BMP280;35462;45.048;7.666;2022-07-29T18:13:57;98689.91;;;28.04
49557;BMP280;35462;45.048;7.666;2022-07-29T18:29:13;98713.44;;;28.14
49557;BMP280;35462;45.048;7.666;2022-07-29T18:44:29;98720.72;;;27.86
49557;BMP280;35462;45.048;7.666;2022-07-29T18:59:44;98735.69;;;27.80
49557;BMP280;35462;45.048;7.666;2022-07-29T19:15:00;98756.41;;;27.57
49557;BMP280;35462;45.048;7.666;2022-07-29T19:30:16;98784.44;;;27.39
49557;BMP280;35462;45.048;7.666;2022-07-29T19:45:35;98799.75;;;27.42
49557;BMP280;35462;45.048;7.666;2022-07-29T20:00:50;98828.84;;;27.47
49557;BMP280;35462;45.048;7.666;2022-07-29T20:16:07;98842.00;;;27.30
49557;BMP280;35462;45.048;7.666;2022-07-29T20:31:23;98838.63;;;27.06
49557;BMP280;35462;45.048;7.666;2022-07-29T20:46:40;98838.81;;;26.40
49557;BMP280;35462;45.048;7.666;2022-07-29T21:01:55;98829.44;;;26.11
49557;BMP280;35462;45.048;7.666;2022-07-29T21:17:11;98831.75;;;26.50
49557;BMP280;35462;45.048;7.666;2022-07-29T21:32:27;98834.94;;;26.30
49557;BMP280;35462;45.048;7.666;2022-07-29T21:47:43;98851.59;;;26.21
49557;BMP280;35462;45.048;7.666;2022-07-29T22:03:00;98845.00;;;26.16
49557;BMP280;35462;45.048;7.666;2022-07-29T22:18:16;98836.91;;;26.11
49557;BMP280;35462;45.048;7.666;2022-07-29T22:33:32;98847.84;;;25.07
49557;BMP280;35462;45.048;7.666;2022-07-29T22:48:48;98841.53;;;25.34
49557;BMP280;35462;45.048;7.666;2022-07-29T23:04:05;98845.88;;;25.42
49557;BMP280;35462;45.048;7.666;2022-07-29T23:19:21;98851.16;;;25.29
49557;BMP280;35462;45.048;7.666;2022-07-29T23:34:37;98847.19;;;25.65
49557;BMP280;35462;45.048;7.666;2022-07-29T23:49:53;98852.06;;;25.43
